createdAt,value
2023-05-08T00:01:01.416Z,4.40
2023-05-08T00:03:28.443Z,4.10
2023-05-08T00:05:58.277Z,4.90
2023-05-08T00:08:25.395Z,4.90
2023-05-08T00:10:52.171Z,5.00
2023-05-08T00:13:19.320Z,5.40
2023-05-08T00:15:46.416Z,4.40
2023-05-08T00:18:13.289Z,4.60
2023-05-08T00:20:40.306Z,4.50
2023-05-08T00:23:07.119Z,5.30
2023-05-08T00:25:34.278Z,4.40
2023-05-08T00:28:01.536Z,4.10
2023-05-08T00:30:28.481Z,4.90
2023-05-08T00:32:55.344Z,4.00
2023-05-08T00:35:22.194Z,4.40
2023-05-08T00:37:48.916Z,4.30
2023-05-08T00:40:16.278Z,4.00
2023-05-08T00:42:43.068Z,4.50
2023-05-08T00:45:10.183Z,4.60
2023-05-08T00:47:37.247Z,4.50
2023-05-08T00:50:05.523Z,4.70
2023-05-08T00:52:33.714Z,4.50
2023-05-08T00:55:03.119Z,4.10
2023-05-08T00:57:32.886Z,4.40
2023-05-08T01:00:01.707Z,5.00
2023-05-08T01:02:31.715Z,4.20
2023-05-08T01:04:58.637Z,3.90
2023-05-08T01:07:26.296Z,4.20
2023-05-08T01:09:53.089Z,4.20
2023-05-08T01:12:31.184Z,3.90
2023-05-08T01:15:24.110Z,4.20
2023-05-08T01:18:04.976Z,4.60
2023-05-08T01:20:49.754Z,4.70
2023-05-08T01:23:50.775Z,3.80
2023-05-08T01:26:31.731Z,4.20
2023-05-08T01:29:26.456Z,3.60
2023-05-08T01:32:12.893Z,4.20
2023-05-08T01:34:50.343Z,3.90
2023-05-08T01:37:23.897Z,4.50
2023-05-08T01:40:11.553Z,4.40
2023-05-08T01:42:58.444Z,4.20
2023-05-08T01:45:35.403Z,4.20
2023-05-08T01:48:10.947Z,4.20
2023-05-08T01:50:49.755Z,4.20
2023-05-08T01:53:33.281Z,4.30
2023-05-08T01:56:11.291Z,4.50
2023-05-08T01:58:39.485Z,4.50
2023-05-08T02:01:06.501Z,4.50
2023-05-08T02:03:35.434Z,4.70
2023-05-08T02:06:03.367Z,4.20
2023-05-08T02:08:32.201Z,4.00
2023-05-08T02:11:01.072Z,4.30
2023-05-08T02:13:30.391Z,4.00
2023-05-08T02:15:59.809Z,4.10
2023-05-08T02:18:29.072Z,4.10
2023-05-08T02:20:57.607Z,3.90
2023-05-08T02:23:26.805Z,3.70
2023-05-08T02:25:55.519Z,4.10
2023-05-08T02:28:24.141Z,4.40
2023-05-08T02:30:52.867Z,3.70
2023-05-08T02:33:21.130Z,4.60
2023-05-08T02:35:50.791Z,4.10
2023-05-08T02:38:20.943Z,3.80
2023-05-08T02:40:53.208Z,3.90
2023-05-08T02:43:20.013Z,4.30
2023-05-08T02:46:01.732Z,4.40
2023-05-08T02:48:28.515Z,4.20
2023-05-08T02:51:11.139Z,4.10
2023-05-08T02:53:51.036Z,4.70
2023-05-08T02:59:17.061Z,4.50
2023-05-08T03:01:52.755Z,4.90
2023-05-08T03:04:34.741Z,4.30
2023-05-08T03:07:03.269Z,4.20
2023-05-08T03:09:44.629Z,4.80
2023-05-08T03:12:17.486Z,4.80
2023-05-08T03:15:02.926Z,5.20
2023-05-08T03:17:32.674Z,5.10
2023-05-08T03:20:03.877Z,5.30
2023-05-08T03:22:32.977Z,4.40
2023-05-08T03:25:02.916Z,4.70
2023-05-08T03:27:30.772Z,4.70
2023-05-08T03:29:59.769Z,4.10
2023-05-08T03:32:28.148Z,4.10
2023-05-08T03:34:58.899Z,4.20
2023-05-08T03:37:29.126Z,4.40
2023-05-08T03:39:56.626Z,5.20
2023-05-08T03:42:27.529Z,4.80
2023-05-08T03:44:54.792Z,4.60
2023-05-08T03:47:22.391Z,4.80
2023-05-08T03:49:50.454Z,4.80
2023-05-08T03:52:17.898Z,5.00
2023-05-08T03:54:44.675Z,4.60
2023-05-08T03:57:11.457Z,4.90
2023-05-08T03:59:52.604Z,5.00
2023-05-08T04:02:31.656Z,4.90
2023-05-08T04:05:09.440Z,4.50
2023-05-08T04:07:43.118Z,4.50
2023-05-08T04:10:16.740Z,4.50
2023-05-08T04:13:07.135Z,5.00
2023-05-08T04:15:42.068Z,4.80
2023-05-08T04:18:12.560Z,4.40
2023-05-08T04:20:41.697Z,5.00
2023-05-08T04:23:09.688Z,5.00
2023-05-08T04:25:39.217Z,5.10
2023-05-08T04:28:06.322Z,4.90
2023-05-08T04:30:33.951Z,5.00
2023-05-08T04:33:04.401Z,4.50
2023-05-08T04:35:31.603Z,5.40
2023-05-08T04:37:59.889Z,4.70
2023-05-08T04:40:26.705Z,4.30
2023-05-08T04:42:53.517Z,4.60
2023-05-08T04:45:20.936Z,4.70
2023-05-08T04:47:47.709Z,4.00
2023-05-08T04:50:14.553Z,4.70
2023-05-08T04:52:41.578Z,4.40
2023-05-08T04:55:09.334Z,4.70
2023-05-08T04:57:36.226Z,4.70
2023-05-08T05:00:05.144Z,5.00
2023-05-08T05:02:32.171Z,4.90
2023-05-08T05:05:01.581Z,4.80
2023-05-08T05:07:28.379Z,5.00
2023-05-08T05:09:55.207Z,4.60
2023-05-08T05:12:22.451Z,4.50
2023-05-08T05:14:49.317Z,4.50
2023-05-08T05:17:16.208Z,5.30
2023-05-08T05:19:43.201Z,5.00
2023-05-08T05:22:10.296Z,4.50
2023-05-08T05:24:37.124Z,3.90
2023-05-08T05:27:04.953Z,4.60
2023-05-08T05:29:31.878Z,4.90
2023-05-08T05:31:58.858Z,4.70
2023-05-08T05:34:25.742Z,4.40
2023-05-08T05:36:52.700Z,4.70
2023-05-08T05:39:19.442Z,5.00
2023-05-08T05:41:46.243Z,4.90
2023-05-08T05:44:13.208Z,4.50
2023-05-08T05:46:42.108Z,4.30
2023-05-08T05:49:11.956Z,4.20
2023-05-08T05:51:38.857Z,4.60
2023-05-08T05:54:05.788Z,4.40
2023-05-08T05:56:32.583Z,4.40
2023-05-08T05:58:59.475Z,5.30
2023-05-08T06:01:29.035Z,4.70
2023-05-08T06:03:55.946Z,4.90
2023-05-08T06:06:23.076Z,4.50
2023-05-08T06:08:49.925Z,4.70
2023-05-08T06:11:17.393Z,4.90
2023-05-08T06:13:45.375Z,4.70
2023-05-08T06:16:12.372Z,4.60
2023-05-08T06:18:39.143Z,4.50
2023-05-08T06:21:06.185Z,4.40
2023-05-08T06:23:33.582Z,4.00
2023-05-08T06:26:00.508Z,5.10
2023-05-08T06:28:27.754Z,5.00
2023-05-08T06:30:56.635Z,4.70
2023-05-08T06:33:26.111Z,4.30
2023-05-08T06:35:53.848Z,4.60
2023-05-08T06:38:20.908Z,4.50
2023-05-08T06:40:50.831Z,4.50
2023-05-08T06:43:17.818Z,4.50
2023-05-08T06:45:45.951Z,4.80
2023-05-08T06:48:13.642Z,4.10
2023-05-08T06:50:41.298Z,4.60
2023-05-08T06:53:09.176Z,3.90
2023-05-08T06:55:36.124Z,4.70
2023-05-08T06:58:03.256Z,4.40
2023-05-08T07:00:30.277Z,4.30
2023-05-08T07:02:57.271Z,4.40
2023-05-08T07:05:24.231Z,4.00
2023-05-08T07:07:51.225Z,4.30
2023-05-08T07:10:20.295Z,4.00
2023-05-08T07:12:48.012Z,3.90
2023-05-08T07:15:25.547Z,3.70
2023-05-08T07:17:53.888Z,3.60
2023-05-08T07:20:21.782Z,3.90
2023-05-08T07:22:49.000Z,3.70
2023-05-08T07:25:16.496Z,4.20
2023-05-08T07:27:43.622Z,3.30
2023-05-08T07:30:11.020Z,3.80
2023-05-08T07:32:39.621Z,3.40
2023-05-08T07:35:11.136Z,3.40
2023-05-08T07:37:39.521Z,3.70
2023-05-08T07:40:07.385Z,3.30
2023-05-08T07:42:44.424Z,3.80
2023-05-08T07:45:13.370Z,3.30
2023-05-08T07:47:59.080Z,4.20
2023-05-08T07:50:26.856Z,3.60
2023-05-08T07:52:54.473Z,3.80
2023-05-08T07:55:21.909Z,3.70
2023-05-08T07:57:48.877Z,3.70
2023-05-08T08:00:17.052Z,3.70
2023-05-08T08:02:45.316Z,4.10
2023-05-08T08:05:12.965Z,4.10
2023-05-08T08:07:40.300Z,3.90
2023-05-08T08:10:08.152Z,3.40
2023-05-08T08:12:35.214Z,3.80
2023-05-08T08:15:02.307Z,3.70
2023-05-08T08:17:29.532Z,3.60
2023-05-08T08:19:57.474Z,3.50
2023-05-08T08:22:25.970Z,3.90
2023-05-08T08:24:56.001Z,3.90
2023-05-08T08:27:24.175Z,3.60
2023-05-08T08:29:58.476Z,3.30
2023-05-08T08:32:31.778Z,3.60
2023-05-08T08:34:58.785Z,3.50
2023-05-08T08:37:26.647Z,3.90
2023-05-08T08:39:54.078Z,4.00
2023-05-08T08:42:21.089Z,3.70
2023-05-08T08:44:48.082Z,3.80
2023-05-08T08:47:19.472Z,4.00
2023-05-08T08:49:51.381Z,3.70
2023-05-08T08:52:18.025Z,4.40
2023-05-08T08:54:47.437Z,4.10
2023-05-08T08:57:15.738Z,3.70
2023-05-08T08:59:44.463Z,3.60
2023-05-08T09:02:15.417Z,3.80
2023-05-08T09:04:42.243Z,4.00
2023-05-08T09:07:09.644Z,4.00
2023-05-08T09:09:44.621Z,3.80
2023-05-08T09:12:14.130Z,4.20
2023-05-08T09:14:40.915Z,3.40
2023-05-08T09:17:07.935Z,3.60
2023-05-08T09:19:35.596Z,3.80
2023-05-08T09:22:06.896Z,3.40
2023-05-08T09:24:57.858Z,3.80
2023-05-08T09:27:26.423Z,3.70
2023-05-08T09:30:02.214Z,3.70
2023-05-08T09:32:33.284Z,4.00
2023-05-08T09:35:01.037Z,3.70
2023-05-08T09:37:29.206Z,4.20
2023-05-08T09:40:14.619Z,4.40
2023-05-08T09:42:41.667Z,4.40
2023-05-08T09:45:09.450Z,4.20
2023-05-08T09:47:40.409Z,4.40
2023-05-08T09:50:12.026Z,4.20
2023-05-08T09:52:39.398Z,5.10
2023-05-08T09:55:08.643Z,3.80
2023-05-08T09:57:41.253Z,4.50
2023-05-08T10:00:13.928Z,4.50
2023-05-08T10:02:43.055Z,4.80
2023-05-08T10:05:34.888Z,4.60
2023-05-08T10:08:19.995Z,4.00
2023-05-08T10:10:47.587Z,4.10
2023-05-08T10:13:14.611Z,3.90
2023-05-08T10:15:43.995Z,4.20
2023-05-08T10:18:12.473Z,4.40
2023-05-08T10:20:41.325Z,4.30
2023-05-08T10:23:15.234Z,4.90
2023-05-08T10:25:59.697Z,3.80
2023-05-08T10:28:37.083Z,4.30
2023-05-08T10:31:07.362Z,4.90
2023-05-08T10:33:36.153Z,4.60
2023-05-08T10:36:03.649Z,4.80
2023-05-08T10:38:31.471Z,4.90
2023-05-08T10:41:01.375Z,4.60
2023-05-08T10:43:31.269Z,5.10
2023-05-08T10:48:47.578Z,4.40
2023-05-08T10:51:35.726Z,4.00
2023-05-08T10:54:09.326Z,4.50
2023-05-08T10:56:38.505Z,3.80
2023-05-08T10:59:06.566Z,5.10
2023-05-08T11:01:33.566Z,3.70
2023-05-08T11:04:00.940Z,4.50
2023-05-08T11:06:49.394Z,4.60
2023-05-08T11:09:27.167Z,4.00
2023-05-08T11:12:07.523Z,4.00
2023-05-08T11:14:37.058Z,4.30
2023-05-08T11:17:04.817Z,4.30
2023-05-08T11:19:32.153Z,4.40
2023-05-08T11:22:27.159Z,4.20
2023-05-08T11:25:09.480Z,4.40
2023-05-08T11:27:49.980Z,4.70
2023-05-08T11:30:35.154Z,4.40
2023-05-08T11:33:05.351Z,4.30
2023-05-08T11:35:49.438Z,4.30
2023-05-08T11:38:36.212Z,4.00
2023-05-08T11:41:04.739Z,4.10
2023-05-08T11:43:36.753Z,4.20
2023-05-08T11:46:17.246Z,4.30
2023-05-08T11:48:44.667Z,4.00
2023-05-08T11:51:13.658Z,3.80
2023-05-08T11:53:40.737Z,3.50
2023-05-08T11:56:08.521Z,3.70
2023-05-08T11:58:36.853Z,3.70
2023-05-08T12:01:04.382Z,3.40
2023-05-08T12:03:31.824Z,3.30
2023-05-08T12:06:00.165Z,3.30
2023-05-08T12:08:27.263Z,3.50
2023-05-08T12:10:58.212Z,3.00
2023-05-08T12:13:30.383Z,3.30
2023-05-08T12:16:01.535Z,3.00
2023-05-08T12:18:30.837Z,3.50
2023-05-08T12:21:00.395Z,3.10
2023-05-08T12:23:29.689Z,3.30
2023-05-08T12:26:01.058Z,3.50
2023-05-08T12:28:28.201Z,3.20
2023-05-08T12:30:55.289Z,3.00
2023-05-08T12:33:22.658Z,3.30
2023-05-08T12:35:49.715Z,3.10
2023-05-08T12:38:16.619Z,3.70
2023-05-08T12:40:45.994Z,2.90
2023-05-08T12:43:12.887Z,3.10
2023-05-08T12:45:42.515Z,3.10
2023-05-08T12:50:42.723Z,3.10
2023-05-08T12:53:12.416Z,2.70
2023-05-08T12:58:09.120Z,3.00
2023-05-08T13:00:44.207Z,3.30
2023-05-08T13:03:13.897Z,3.30
2023-05-08T13:05:45.986Z,3.40
2023-05-08T13:08:13.032Z,2.80
2023-05-08T13:10:55.492Z,3.00
2023-05-08T13:13:24.677Z,3.00
2023-05-08T13:15:53.712Z,2.90
2023-05-08T13:18:22.590Z,3.00
2023-05-08T13:20:49.491Z,3.00
2023-05-08T13:23:16.340Z,3.20
2023-05-08T13:25:43.268Z,3.00
2023-05-08T13:28:11.529Z,2.90
2023-05-08T13:30:38.603Z,3.00
2023-05-08T13:33:06.338Z,3.00
2023-05-08T13:35:34.147Z,2.90
2023-05-08T13:38:01.537Z,2.60
2023-05-08T13:40:28.896Z,3.10
2023-05-08T13:42:55.967Z,3.30
2023-05-08T13:45:22.890Z,3.30
2023-05-08T13:47:51.507Z,3.20
2023-05-08T13:50:22.496Z,3.10
2023-05-08T13:52:51.639Z,3.60
2023-05-08T13:55:22.326Z,3.10
2023-05-08T13:57:49.193Z,3.20
2023-05-08T14:00:16.326Z,3.00
2023-05-08T14:02:43.448Z,3.00
2023-05-08T14:05:10.479Z,3.20
2023-05-08T14:07:37.414Z,3.30
2023-05-08T14:10:05.094Z,3.10
2023-05-08T14:12:36.166Z,3.50
2023-05-08T14:15:05.306Z,3.30
2023-05-08T14:17:33.363Z,3.30
2023-05-08T14:20:00.826Z,2.90
2023-05-08T14:22:27.784Z,3.10
2023-05-08T14:24:54.731Z,3.40
2023-05-08T14:27:21.799Z,3.20
2023-05-08T14:29:48.762Z,2.60
2023-05-08T14:32:15.719Z,3.40
2023-05-08T14:34:42.631Z,3.30
2023-05-08T14:37:09.389Z,3.90
2023-05-08T14:39:36.203Z,3.30
2023-05-08T14:44:36.080Z,3.10
2023-05-08T14:47:03.333Z,2.90
2023-05-08T14:49:37.593Z,2.90
2023-05-08T14:52:07.057Z,2.90
2023-05-08T14:54:34.096Z,3.40
2023-05-08T14:57:01.139Z,3.60
2023-05-08T14:59:27.874Z,2.90
2023-05-08T15:01:54.631Z,3.20
2023-05-08T15:04:21.700Z,3.00
2023-05-08T15:06:48.559Z,3.30
2023-05-08T15:09:16.880Z,3.50
2023-05-08T15:11:44.029Z,3.40
2023-05-08T15:14:10.796Z,3.30
2023-05-08T15:16:37.602Z,3.30
2023-05-08T15:19:04.397Z,3.40
2023-05-08T15:21:31.184Z,3.50
2023-05-08T15:23:57.965Z,3.20
2023-05-08T15:26:24.723Z,2.70
2023-05-08T15:28:51.594Z,3.40
2023-05-08T15:31:18.674Z,3.40
2023-05-08T15:33:46.077Z,2.90
2023-05-08T15:36:13.809Z,3.00
2023-05-08T15:38:41.762Z,3.70
2023-05-08T15:41:14.805Z,3.60
2023-05-08T15:43:42.391Z,3.40
2023-05-08T15:48:49.738Z,3.60
2023-05-08T15:51:16.444Z,3.70
2023-05-08T15:53:43.166Z,3.60
2023-05-08T15:56:10.070Z,2.80
2023-05-08T15:58:38.974Z,3.20
2023-05-08T16:01:06.023Z,3.50
2023-05-08T16:03:34.328Z,3.40
2023-05-08T16:06:01.339Z,3.60
2023-05-08T16:08:29.481Z,3.20
2023-05-08T16:10:56.401Z,3.60
2023-05-08T16:13:23.719Z,3.90
2023-05-08T16:15:50.635Z,3.20
2023-05-08T16:18:17.420Z,3.30
2023-05-08T16:20:44.574Z,3.70
2023-05-08T16:23:11.248Z,3.30
2023-05-08T16:25:38.152Z,3.80
2023-05-08T16:28:04.933Z,4.20
2023-05-08T16:30:31.681Z,4.40
2023-05-08T16:32:58.406Z,4.20
2023-05-08T16:35:25.265Z,4.20
2023-05-08T16:37:52.808Z,4.80
2023-05-08T16:40:19.663Z,6.50
2023-05-08T16:42:46.392Z,5.80
2023-05-08T16:45:13.840Z,5.40
2023-05-08T16:47:40.749Z,5.00
2023-05-08T16:50:08.161Z,4.20
2023-05-08T16:52:34.952Z,4.80
2023-05-08T16:55:01.717Z,4.50
2023-05-08T16:57:28.719Z,4.70
2023-05-08T16:59:55.430Z,4.70
2023-05-08T17:02:22.327Z,4.00
2023-05-08T17:04:49.670Z,6.10
2023-05-08T17:07:17.468Z,40.70
2023-05-08T17:09:45.214Z,16.10
2023-05-08T17:12:12.001Z,7.90
2023-05-08T17:14:40.609Z,6.00
2023-05-08T17:17:07.664Z,9.80
2023-05-08T17:19:34.713Z,34.20
2023-05-08T17:22:02.187Z,15.30
2023-05-08T17:24:32.788Z,41.40
2023-05-08T17:26:59.703Z,21.30
2023-05-08T17:29:29.255Z,13.90
2023-05-08T17:31:56.600Z,10.60
2023-05-08T17:34:23.378Z,5.90
2023-05-08T17:36:50.457Z,4.70
2023-05-08T17:39:20.008Z,5.00
2023-05-08T17:41:48.085Z,4.40
2023-05-08T17:44:16.235Z,4.60
2023-05-08T17:46:43.121Z,5.20
2023-05-08T17:49:09.943Z,5.30
2023-05-08T17:51:36.792Z,5.50
2023-05-08T17:54:03.638Z,5.80
2023-05-08T17:56:31.788Z,5.80
2023-05-08T17:58:58.844Z,6.10
2023-05-08T18:01:26.296Z,6.00
2023-05-08T18:03:53.627Z,5.90
2023-05-08T18:06:20.837Z,6.30
2023-05-08T18:08:48.339Z,6.60
2023-05-08T18:11:19.591Z,7.10
2023-05-08T18:13:47.767Z,8.00
2023-05-08T18:16:16.272Z,7.90
2023-05-08T18:18:43.694Z,8.20
2023-05-08T18:21:10.525Z,8.90
2023-05-08T18:23:37.760Z,9.10
2023-05-08T18:26:04.984Z,7.90
2023-05-08T18:28:32.282Z,8.20
2023-05-08T18:30:59.357Z,8.10
2023-05-08T18:33:26.435Z,7.90
2023-05-08T18:35:53.424Z,8.70
2023-05-08T18:38:20.287Z,8.40
2023-05-08T18:40:47.409Z,9.10
2023-05-08T18:43:14.563Z,10.00
2023-05-08T18:45:42.062Z,8.10
2023-05-08T18:48:10.173Z,8.90
2023-05-08T18:50:37.331Z,8.40
2023-05-08T18:53:04.214Z,8.50
2023-05-08T18:55:30.989Z,8.40
2023-05-08T18:57:57.794Z,8.60
2023-05-08T19:00:24.719Z,8.70
2023-05-08T19:02:51.672Z,8.10
2023-05-08T19:05:18.906Z,8.00
2023-05-08T19:07:45.864Z,7.80
2023-05-08T19:10:13.148Z,7.80
2023-05-08T19:12:40.729Z,8.20
2023-05-08T19:15:09.592Z,8.60
2023-05-08T19:17:37.179Z,9.50
2023-05-08T19:20:04.515Z,8.50
2023-05-08T19:22:33.806Z,9.10
2023-05-08T19:25:03.168Z,9.50
2023-05-08T19:27:30.333Z,9.00
2023-05-08T19:29:57.300Z,9.20
2023-05-08T19:32:24.256Z,8.70
2023-05-08T19:34:51.007Z,8.90
2023-05-08T19:37:17.814Z,9.80
2023-05-08T19:39:44.870Z,8.90
2023-05-08T19:42:14.130Z,8.90
2023-05-08T19:44:41.220Z,9.20
2023-05-08T19:47:08.270Z,9.30
2023-05-08T19:49:35.098Z,8.00
2023-05-08T19:52:01.865Z,8.70
2023-05-08T19:54:30.604Z,9.00
2023-05-08T19:56:57.820Z,8.80
2023-05-08T19:59:24.851Z,8.60
2023-05-08T20:01:52.421Z,7.30
2023-05-08T20:04:19.408Z,8.60
2023-05-08T20:06:46.312Z,8.40
2023-05-08T20:09:13.070Z,8.30
2023-05-08T20:11:40.162Z,8.10
2023-05-08T20:14:06.917Z,7.10
2023-05-08T20:16:34.229Z,8.50
2023-05-08T20:19:01.993Z,8.00
2023-05-08T20:21:33.989Z,7.80
2023-05-08T20:24:01.240Z,8.10
2023-05-08T20:26:29.621Z,7.50
2023-05-08T20:28:57.294Z,7.30
2023-05-08T20:31:27.770Z,7.40
2023-05-08T20:33:54.944Z,6.80
2023-05-08T20:36:21.758Z,7.20
2023-05-08T20:38:48.649Z,6.70
2023-05-08T20:41:15.607Z,6.40
2023-05-08T20:43:42.852Z,6.70
2023-05-08T20:46:10.279Z,6.80
2023-05-08T20:48:38.606Z,6.50
2023-05-08T20:51:05.500Z,6.30
2023-05-08T20:53:32.901Z,7.10
2023-05-08T20:56:01.285Z,7.30
2023-05-08T20:58:28.125Z,7.00
2023-05-08T21:00:55.056Z,7.10
2023-05-08T21:03:22.408Z,6.50
2023-05-08T21:05:49.402Z,6.30
2023-05-08T21:08:16.175Z,6.60
2023-05-08T21:10:43.087Z,6.80
2023-05-08T21:13:09.956Z,6.80
2023-05-08T21:15:36.794Z,6.10
2023-05-08T21:18:04.008Z,6.10
2023-05-08T21:20:34.016Z,6.50
2023-05-08T21:23:00.935Z,5.90
2023-05-08T21:25:27.800Z,6.60
2023-05-08T21:27:55.496Z,6.60
2023-05-08T21:30:22.491Z,6.80
2023-05-08T21:32:49.293Z,5.80
2023-05-08T21:35:16.510Z,5.70
2023-05-08T21:37:43.583Z,5.70
2023-05-08T21:40:10.537Z,5.40
2023-05-08T21:42:37.407Z,6.20
2023-05-08T21:45:04.599Z,6.30
2023-05-08T21:47:31.487Z,5.70
2023-05-08T21:49:58.383Z,6.60
2023-05-08T21:52:26.258Z,6.50
2023-05-08T21:54:53.050Z,5.70
2023-05-08T21:57:19.889Z,6.00
2023-05-08T21:59:46.956Z,5.90
2023-05-08T22:02:13.825Z,6.20
2023-05-08T22:04:41.267Z,6.30
2023-05-08T22:07:08.042Z,5.90
2023-05-08T22:09:34.887Z,5.50
2023-05-08T22:12:02.229Z,5.90
2023-05-08T22:14:29.132Z,5.90
2023-05-08T22:16:55.947Z,5.70
2023-05-08T22:19:22.729Z,5.40
2023-05-08T22:21:49.483Z,5.80
2023-05-08T22:24:16.815Z,5.90
2023-05-08T22:26:43.637Z,5.60
2023-05-08T22:29:10.414Z,5.90
2023-05-08T22:31:37.205Z,5.20
2023-05-08T22:34:03.985Z,5.60
2023-05-08T22:36:30.804Z,5.30
2023-05-08T22:38:57.541Z,5.80
2023-05-08T22:41:24.346Z,5.20
2023-05-08T22:43:51.279Z,5.20
2023-05-08T22:46:18.690Z,6.30
2023-05-08T22:48:45.988Z,5.40
2023-05-08T22:51:13.531Z,6.00
2023-05-08T22:53:40.315Z,5.60
2023-05-08T22:56:07.179Z,6.10
2023-05-08T22:58:34.013Z,5.40
2023-05-08T23:01:00.861Z,5.60
2023-05-08T23:03:27.789Z,5.70
2023-05-08T23:05:54.925Z,6.10
2023-05-08T23:08:22.697Z,5.80
2023-05-08T23:10:49.658Z,5.70
2023-05-08T23:13:16.501Z,5.50
2023-05-08T23:15:43.239Z,5.50
2023-05-08T23:18:10.110Z,5.80
2023-05-08T23:20:36.974Z,5.80
2023-05-08T23:23:03.688Z,6.20
2023-05-08T23:25:30.684Z,5.30
2023-05-08T23:27:57.872Z,5.00
2023-05-08T23:30:24.639Z,5.40
2023-05-08T23:32:51.440Z,5.60
2023-05-08T23:35:18.292Z,5.20
2023-05-08T23:37:45.072Z,5.00
2023-05-08T23:40:12.259Z,5.10
2023-05-08T23:42:40.021Z,5.30
2023-05-08T23:45:07.974Z,5.00
2023-05-08T23:47:34.798Z,4.80
2023-05-08T23:50:01.623Z,5.00
2023-05-08T23:52:28.892Z,5.30
2023-05-08T23:54:55.776Z,4.80
2023-05-08T23:57:23.340Z,5.10
2023-05-08T23:59:50.105Z,5.10
